sensor_id;sensor_type;location;lat;lon;timestamp;P1;durP1;ratioP1;P2;durP2;ratioP2
33413;SDS011;60055;41.884;12.534;2023-07-09T00:01:36;18.73;;;10.43;;
33413;SDS011;60055;41.884;12.534;2023-07-09T00:04:02;17.50;;;10.20;;
33413;SDS011;60055;41.884;12.534;2023-07-09T00:06:27;18.20;;;9.45;;
33413;SDS011;60055;41.884;12.534;2023-07-09T00:08:53;18.35;;;9.27;;
33413;SDS011;60055;41.884;12.534;2023-07-09T00:11:18;13.63;;;9.10;;
33413;SDS011;60055;41.884;12.534;2023-07-09T00:13:44;16.42;;;9.90;;
33413;SDS011;60055;41.884;12.534;2023-07-09T00:16:13;17.15;;;8.80;;
33413;SDS011;60055;41.884;12.534;2023-07-09T00:18:42;13.65;;;8.75;;
33413;SDS011;60055;41.884;12.534;2023-07-09T00:21:08;18.02;;;8.68;;
33413;SDS011;60055;41.884;12.534;2023-07-09T00:23:33;16.15;;;8.32;;
33413;SDS011;60055;41.884;12.534;2023-07-09T00:25:59;21.98;;;8.95;;
33413;SDS011;60055;41.884;12.534;2023-07-09T00:28:24;15.43;;;8.43;;
33413;SDS011;60055;41.884;12.534;2023-07-09T00:30:50;13.35;;;8.77;;
33413;SDS011;60055;41.884;12.534;2023-07-09T00:33:16;13.77;;;8.30;;
33413;SDS011;60055;41.884;12.534;2023-07-09T00:35:45;13.45;;;8.18;;
33413;SDS011;60055;41.884;12.534;2023-07-09T00:38:19;15.43;;;8.07;;
33413;SDS011;60055;41.884;12.534;2023-07-09T00:40:47;15.63;;;8.23;;
33413;SDS011;60055;41.884;12.534;2023-07-09T00:43:21;17.77;;;8.60;;
33413;SDS011;60055;41.884;12.534;2023-07-09T00:46:07;13.50;;;8.10;;
33413;SDS011;60055;41.884;12.534;2023-07-09T00:48:39;17.10;;;7.85;;
33413;SDS011;60055;41.884;12.534;2023-07-09T00:51:08;11.60;;;7.20;;
33413;SDS011;60055;41.884;12.534;2023-07-09T00:53:40;16.67;;;8.13;;
33413;SDS011;60055;41.884;12.534;2023-07-09T00:56:24;13.43;;;7.50;;
33413;SDS011;60055;41.884;12.534;2023-07-09T00:58:54;13.98;;;7.30;;
33413;SDS011;60055;41.884;12.534;2023-07-09T01:01:22;14.43;;;7.13;;
33413;SDS011;60055;41.884;12.534;2023-07-09T01:03:49;12.70;;;7.43;;
33413;SDS011;60055;41.884;12.534;2023-07-09T01:06:25;11.98;;;7.18;;
33413;SDS011;60055;41.884;12.534;2023-07-09T01:08:55;15.43;;;8.15;;
33413;SDS011;60055;41.884;12.534;2023-07-09T01:11:21;13.15;;;7.47;;
33413;SDS011;60055;41.884;12.534;2023-07-09T01:13:47;16.17;;;8.25;;
33413;SDS011;60055;41.884;12.534;2023-07-09T01:16:16;15.32;;;7.47;;
33413;SDS011;60055;41.884;12.534;2023-07-09T01:18:42;13.45;;;7.35;;
33413;SDS011;60055;41.884;12.534;2023-07-09T01:21:09;13.65;;;7.18;;
33413;SDS011;60055;41.884;12.534;2023-07-09T01:23:40;16.23;;;7.25;;
33413;SDS011;60055;41.884;12.534;2023-07-09T01:26:10;12.27;;;7.35;;
33413;SDS011;60055;41.884;12.534;2023-07-09T01:28:38;12.43;;;7.90;;
33413;SDS011;60055;41.884;12.534;2023-07-09T01:31:07;15.90;;;7.47;;
33413;SDS011;60055;41.884;12.534;2023-07-09T01:33:33;14.07;;;8.15;;
33413;SDS011;60055;41.884;12.534;2023-07-09T01:35:58;16.52;;;7.78;;
33413;SDS011;60055;41.884;12.534;2023-07-09T01:38:26;13.82;;;7.28;;
33413;SDS011;60055;41.884;12.534;2023-07-09T01:40:55;16.58;;;8.15;;
33413;SDS011;60055;41.884;12.534;2023-07-09T01:43:21;17.20;;;7.53;;
33413;SDS011;60055;41.884;12.534;2023-07-09T01:45:47;13.52;;;7.75;;
33413;SDS011;60055;41.884;12.534;2023-07-09T01:48:15;13.70;;;7.68;;
33413;SDS011;60055;41.884;12.534;2023-07-09T01:50:41;13.70;;;8.05;;
33413;SDS011;60055;41.884;12.534;2023-07-09T01:53:09;16.33;;;7.90;;
33413;SDS011;60055;41.884;12.534;2023-07-09T01:55:37;13.00;;;7.47;;
33413;SDS011;60055;41.884;12.534;2023-07-09T01:58:02;16.38;;;7.93;;
33413;SDS011;60055;41.884;12.534;2023-07-09T02:00:32;13.85;;;7.45;;
33413;SDS011;60055;41.884;12.534;2023-07-09T02:03:00;13.32;;;7.55;;
33413;SDS011;60055;41.884;12.534;2023-07-09T02:05:27;13.63;;;7.50;;
33413;SDS011;60055;41.884;12.534;2023-07-09T02:07:55;15.90;;;7.55;;
33413;SDS011;60055;41.884;12.534;2023-07-09T02:10:20;12.85;;;7.82;;
33413;SDS011;60055;41.884;12.534;2023-07-09T02:12:46;12.50;;;7.60;;
33413;SDS011;60055;41.884;12.534;2023-07-09T02:15:12;13.35;;;7.70;;
33413;SDS011;60055;41.884;12.534;2023-07-09T02:17:39;15.07;;;8.18;;
33413;SDS011;60055;41.884;12.534;2023-07-09T02:20:04;16.60;;;8.65;;
33413;SDS011;60055;41.884;12.534;2023-07-09T02:22:32;14.07;;;7.60;;
33413;SDS011;60055;41.884;12.534;2023-07-09T02:24:58;14.82;;;7.53;;
33413;SDS011;60055;41.884;12.534;2023-07-09T02:27:23;11.88;;;7.78;;
33413;SDS011;60055;41.884;12.534;2023-07-09T02:29:49;16.67;;;8.32;;
33413;SDS011;60055;41.884;12.534;2023-07-09T02:32:19;16.55;;;7.97;;
33413;SDS011;60055;41.884;12.534;2023-07-09T02:34:46;15.57;;;7.53;;
33413;SDS011;60055;41.884;12.534;2023-07-09T02:37:18;22.88;;;8.45;;
33413;SDS011;60055;41.884;12.534;2023-07-09T02:39:46;16.40;;;8.00;;
33413;SDS011;60055;41.884;12.534;2023-07-09T02:42:12;13.18;;;7.97;;
33413;SDS011;60055;41.884;12.534;2023-07-09T02:44:40;12.85;;;8.10;;
33413;SDS011;60055;41.884;12.534;2023-07-09T02:47:06;12.27;;;7.63;;
33413;SDS011;60055;41.884;12.534;2023-07-09T02:49:32;13.68;;;8.15;;
33413;SDS011;60055;41.884;12.534;2023-07-09T02:51:57;13.85;;;8.20;;
33413;SDS011;60055;41.884;12.534;2023-07-09T02:54:22;14.75;;;7.97;;
33413;SDS011;60055;41.884;12.534;2023-07-09T02:56:48;14.57;;;8.40;;
33413;SDS011;60055;41.884;12.534;2023-07-09T02:59:14;14.73;;;8.48;;
33413;SDS011;60055;41.884;12.534;2023-07-09T03:01:39;12.00;;;7.80;;
33413;SDS011;60055;41.884;12.534;2023-07-09T03:04:05;13.07;;;7.93;;
33413;SDS011;60055;41.884;12.534;2023-07-09T03:06:32;13.55;;;7.78;;
33413;SDS011;60055;41.884;12.534;2023-07-09T03:08:58;15.07;;;8.07;;
33413;SDS011;60055;41.884;12.534;2023-07-09T03:11:25;16.65;;;8.05;;
33413;SDS011;60055;41.884;12.534;2023-07-09T03:13:51;13.68;;;7.85;;
33413;SDS011;60055;41.884;12.534;2023-07-09T03:16:16;12.68;;;7.55;;
33413;SDS011;60055;41.884;12.534;2023-07-09T03:18:44;17.00;;;8.45;;
33413;SDS011;60055;41.884;12.534;2023-07-09T03:21:09;11.13;;;7.57;;
33413;SDS011;60055;41.884;12.534;2023-07-09T03:23:34;16.05;;;7.93;;
33413;SDS011;60055;41.884;12.534;2023-07-09T03:26:00;13.82;;;7.32;;
33413;SDS011;60055;41.884;12.534;2023-07-09T03:28:26;14.00;;;7.50;;
33413;SDS011;60055;41.884;12.534;2023-07-09T03:30:53;13.45;;;7.50;;
33413;SDS011;60055;41.884;12.534;2023-07-09T03:33:20;16.85;;;7.90;;
33413;SDS011;60055;41.884;12.534;2023-07-09T03:35:46;11.45;;;7.03;;
33413;SDS011;60055;41.884;12.534;2023-07-09T03:38:11;14.63;;;8.35;;
33413;SDS011;60055;41.884;12.534;2023-07-09T03:40:37;13.35;;;7.30;;
33413;SDS011;60055;41.884;12.534;2023-07-09T03:43:06;15.10;;;6.85;;
33413;SDS011;60055;41.884;12.534;2023-07-09T03:45:34;13.65;;;7.80;;
33413;SDS011;60055;41.884;12.534;2023-07-09T03:48:00;16.50;;;10.40;;
33413;SDS011;60055;41.884;12.534;2023-07-09T03:50:26;13.93;;;9.13;;
33413;SDS011;60055;41.884;12.534;2023-07-09T03:52:52;17.02;;;8.52;;
33413;SDS011;60055;41.884;12.534;2023-07-09T03:55:18;16.30;;;7.82;;
33413;SDS011;60055;41.884;12.534;2023-07-09T03:57:44;12.90;;;7.50;;
33413;SDS011;60055;41.884;12.534;2023-07-09T04:00:09;13.32;;;7.55;;
33413;SDS011;60055;41.884;12.534;2023-07-09T04:02:35;13.60;;;7.05;;
33413;SDS011;60055;41.884;12.534;2023-07-09T04:05:01;12.60;;;7.43;;
33413;SDS011;60055;41.884;12.534;2023-07-09T04:07:28;14.18;;;7.28;;
33413;SDS011;60055;41.884;12.534;2023-07-09T04:09:53;13.23;;;6.78;;
33413;SDS011;60055;41.884;12.534;2023-07-09T04:12:19;13.50;;;7.55;;
33413;SDS011;60055;41.884;12.534;2023-07-09T04:14:44;13.65;;;7.78;;
33413;SDS011;60055;41.884;12.534;2023-07-09T04:17:10;12.30;;;6.43;;
33413;SDS011;60055;41.884;12.534;2023-07-09T04:19:35;11.73;;;7.15;;
33413;SDS011;60055;41.884;12.534;2023-07-09T04:22:01;11.98;;;7.65;;
33413;SDS011;60055;41.884;12.534;2023-07-09T04:24:26;13.55;;;7.20;;
33413;SDS011;60055;41.884;12.534;2023-07-09T04:26:52;15.60;;;7.50;;
33413;SDS011;60055;41.884;12.534;2023-07-09T04:29:21;14.93;;;8.23;;
33413;SDS011;60055;41.884;12.534;2023-07-09T04:31:47;12.90;;;7.95;;
33413;SDS011;60055;41.884;12.534;2023-07-09T04:34:13;13.55;;;7.88;;
33413;SDS011;60055;41.884;12.534;2023-07-09T04:36:38;13.20;;;6.97;;
33413;SDS011;60055;41.884;12.534;2023-07-09T04:39:04;10.95;;;6.95;;
33413;SDS011;60055;41.884;12.534;2023-07-09T04:41:30;12.45;;;7.72;;
33413;SDS011;60055;41.884;12.534;2023-07-09T04:46:34;10.63;;;6.80;;
33413;SDS011;60055;41.884;12.534;2023-07-09T04:48:59;11.10;;;6.88;;
33413;SDS011;60055;41.884;12.534;2023-07-09T04:51:25;11.27;;;6.60;;
33413;SDS011;60055;41.884;12.534;2023-07-09T04:53:51;15.10;;;7.18;;
33413;SDS011;60055;41.884;12.534;2023-07-09T04:56:17;12.02;;;6.88;;
33413;SDS011;60055;41.884;12.534;2023-07-09T04:58:43;10.13;;;6.70;;
33413;SDS011;60055;41.884;12.534;2023-07-09T05:01:09;13.75;;;6.88;;
33413;SDS011;60055;41.884;12.534;2023-07-09T05:03:35;16.50;;;6.90;;
33413;SDS011;60055;41.884;12.534;2023-07-09T05:06:00;15.50;;;6.57;;
33413;SDS011;60055;41.884;12.534;2023-07-09T05:08:26;10.48;;;6.25;;
33413;SDS011;60055;41.884;12.534;2023-07-09T05:10:51;16.33;;;7.97;;
33413;SDS011;60055;41.884;12.534;2023-07-09T05:13:18;10.98;;;6.38;;
33413;SDS011;60055;41.884;12.534;2023-07-09T05:15:44;11.52;;;6.20;;
33413;SDS011;60055;41.884;12.534;2023-07-09T05:18:12;14.52;;;6.70;;
33413;SDS011;60055;41.884;12.534;2023-07-09T05:20:38;11.75;;;6.57;;
33413;SDS011;60055;41.884;12.534;2023-07-09T05:23:04;11.68;;;6.47;;
33413;SDS011;60055;41.884;12.534;2023-07-09T05:25:30;9.65;;;5.82;;
33413;SDS011;60055;41.884;12.534;2023-07-09T05:27:55;13.00;;;6.22;;
33413;SDS011;60055;41.884;12.534;2023-07-09T05:30:21;13.38;;;6.57;;
33413;SDS011;60055;41.884;12.534;2023-07-09T05:32:47;10.77;;;5.95;;
33413;SDS011;60055;41.884;12.534;2023-07-09T05:35:13;11.63;;;6.97;;
33413;SDS011;60055;41.884;12.534;2023-07-09T05:37:39;15.60;;;8.88;;
33413;SDS011;60055;41.884;12.534;2023-07-09T05:40:05;8.85;;;6.13;;
33413;SDS011;60055;41.884;12.534;2023-07-09T05:42:32;12.05;;;6.15;;
33413;SDS011;60055;41.884;12.534;2023-07-09T05:44:57;14.43;;;6.68;;
33413;SDS011;60055;41.884;12.534;2023-07-09T05:47:23;14.15;;;5.97;;
33413;SDS011;60055;41.884;12.534;2023-07-09T05:49:49;11.80;;;6.10;;
33413;SDS011;60055;41.884;12.534;2023-07-09T05:52:16;9.45;;;5.70;;
33413;SDS011;60055;41.884;12.534;2023-07-09T05:54:42;11.68;;;6.20;;
33413;SDS011;60055;41.884;12.534;2023-07-09T05:57:08;10.80;;;5.97;;
33413;SDS011;60055;41.884;12.534;2023-07-09T05:59:34;14.55;;;5.90;;
33413;SDS011;60055;41.884;12.534;2023-07-09T06:01:59;9.27;;;5.85;;
33413;SDS011;60055;41.884;12.534;2023-07-09T06:04:26;12.80;;;6.15;;
33413;SDS011;60055;41.884;12.534;2023-07-09T06:06:51;12.35;;;6.18;;
33413;SDS011;60055;41.884;12.534;2023-07-09T06:09:17;13.80;;;7.50;;
33413;SDS011;60055;41.884;12.534;2023-07-09T06:11:42;12.48;;;6.30;;
33413;SDS011;60055;41.884;12.534;2023-07-09T06:14:09;12.10;;;5.93;;
33413;SDS011;60055;41.884;12.534;2023-07-09T06:16:34;11.73;;;6.30;;
33413;SDS011;60055;41.884;12.534;2023-07-09T06:19:00;15.15;;;6.13;;
33413;SDS011;60055;41.884;12.534;2023-07-09T06:21:25;12.80;;;5.75;;
33413;SDS011;60055;41.884;12.534;2023-07-09T06:23:51;11.73;;;5.97;;
33413;SDS011;60055;41.884;12.534;2023-07-09T06:26:16;13.27;;;5.95;;
33413;SDS011;60055;41.884;12.534;2023-07-09T06:28:42;11.95;;;6.60;;
33413;SDS011;60055;41.884;12.534;2023-07-09T06:31:07;10.70;;;6.28;;
33413;SDS011;60055;41.884;12.534;2023-07-09T06:33:33;13.35;;;6.65;;
33413;SDS011;60055;41.884;12.534;2023-07-09T06:35:59;11.13;;;6.25;;
33413;SDS011;60055;41.884;12.534;2023-07-09T06:38:26;12.73;;;5.72;;
33413;SDS011;60055;41.884;12.534;2023-07-09T06:40:53;11.63;;;5.63;;
33413;SDS011;60055;41.884;12.534;2023-07-09T06:43:18;12.38;;;6.20;;
33413;SDS011;60055;41.884;12.534;2023-07-09T06:45:48;10.88;;;6.25;;
33413;SDS011;60055;41.884;12.534;2023-07-09T06:48:15;9.38;;;6.03;;
33413;SDS011;60055;41.884;12.534;2023-07-09T06:50:40;10.27;;;5.95;;
33413;SDS011;60055;41.884;12.534;2023-07-09T06:53:06;14.63;;;6.22;;
33413;SDS011;60055;41.884;12.534;2023-07-09T06:55:31;11.90;;;6.35;;
33413;SDS011;60055;41.884;12.534;2023-07-09T06:57:57;12.88;;;5.47;;
33413;SDS011;60055;41.884;12.534;2023-07-09T07:00:22;12.93;;;5.82;;
33413;SDS011;60055;41.884;12.534;2023-07-09T07:02:48;10.55;;;6.10;;
33413;SDS011;60055;41.884;12.534;2023-07-09T07:05:14;15.95;;;5.78;;
33413;SDS011;60055;41.884;12.534;2023-07-09T07:07:39;10.73;;;6.00;;
33413;SDS011;60055;41.884;12.534;2023-07-09T07:10:05;12.35;;;6.30;;
33413;SDS011;60055;41.884;12.534;2023-07-09T07:12:39;10.13;;;5.97;;
33413;SDS011;60055;41.884;12.534;2023-07-09T07:15:07;12.63;;;6.32;;
33413;SDS011;60055;41.884;12.534;2023-07-09T07:17:33;12.93;;;6.22;;
33413;SDS011;60055;41.884;12.534;2023-07-09T07:19:58;10.50;;;5.82;;
33413;SDS011;60055;41.884;12.534;2023-07-09T07:22:23;9.27;;;5.03;;
33413;SDS011;60055;41.884;12.534;2023-07-09T07:24:49;14.23;;;6.32;;
33413;SDS011;60055;41.884;12.534;2023-07-09T07:27:14;11.18;;;5.60;;
33413;SDS011;60055;41.884;12.534;2023-07-09T07:29:40;10.25;;;5.22;;
33413;SDS011;60055;41.884;12.534;2023-07-09T07:32:05;12.43;;;5.88;;
33413;SDS011;60055;41.884;12.534;2023-07-09T07:34:31;10.63;;;5.78;;
33413;SDS011;60055;41.884;12.534;2023-07-09T07:36:57;10.57;;;5.80;;
33413;SDS011;60055;41.884;12.534;2023-07-09T07:39:22;8.50;;;5.50;;
33413;SDS011;60055;41.884;12.534;2023-07-09T07:41:47;11.18;;;5.70;;
33413;SDS011;60055;41.884;12.534;2023-07-09T07:44:15;9.48;;;6.15;;
33413;SDS011;60055;41.884;12.534;2023-07-09T07:46:41;11.00;;;5.80;;
33413;SDS011;60055;41.884;12.534;2023-07-09T07:49:06;10.63;;;5.60;;
33413;SDS011;60055;41.884;12.534;2023-07-09T07:51:32;9.48;;;5.80;;
33413;SDS011;60055;41.884;12.534;2023-07-09T07:53:58;14.82;;;5.93;;
33413;SDS011;60055;41.884;12.534;2023-07-09T07:56:24;8.35;;;5.53;;
33413;SDS011;60055;41.884;12.534;2023-07-09T07:58:50;12.77;;;6.03;;
33413;SDS011;60055;41.884;12.534;2023-07-09T08:01:16;10.52;;;5.68;;
33413;SDS011;60055;41.884;12.534;2023-07-09T08:03:41;12.30;;;5.95;;
33413;SDS011;60055;41.884;12.534;2023-07-09T08:06:07;10.40;;;5.97;;
33413;SDS011;60055;41.884;12.534;2023-07-09T08:08:32;12.65;;;5.97;;
33413;SDS011;60055;41.884;12.534;2023-07-09T08:11:01;11.02;;;5.90;;
33413;SDS011;60055;41.884;12.534;2023-07-09T08:13:30;11.95;;;6.47;;
33413;SDS011;60055;41.884;12.534;2023-07-09T08:15:58;12.25;;;6.18;;
33413;SDS011;60055;41.884;12.534;2023-07-09T08:18:23;10.68;;;6.35;;
33413;SDS011;60055;41.884;12.534;2023-07-09T08:20:49;15.18;;;6.03;;
33413;SDS011;60055;41.884;12.534;2023-07-09T08:23:14;11.45;;;5.88;;
33413;SDS011;60055;41.884;12.534;2023-07-09T08:25:40;12.15;;;5.97;;
33413;SDS011;60055;41.884;12.534;2023-07-09T08:28:05;9.27;;;5.50;;
33413;SDS011;60055;41.884;12.534;2023-07-09T08:30:31;9.88;;;5.75;;
33413;SDS011;60055;41.884;12.534;2023-07-09T08:32:56;10.82;;;5.97;;
33413;SDS011;60055;41.884;12.534;2023-07-09T08:35:22;9.93;;;5.88;;
33413;SDS011;60055;41.884;12.534;2023-07-09T08:37:48;13.77;;;5.93;;
33413;SDS011;60055;41.884;12.534;2023-07-09T08:40:14;11.05;;;6.07;;
33413;SDS011;60055;41.884;12.534;2023-07-09T08:42:45;9.73;;;5.57;;
33413;SDS011;60055;41.884;12.534;2023-07-09T08:48:28;12.55;;;5.80;;
33413;SDS011;60055;41.884;12.534;2023-07-09T08:50:59;11.15;;;5.63;;
33413;SDS011;60055;41.884;12.534;2023-07-09T08:53:35;9.23;;;5.47;;
33413;SDS011;60055;41.884;12.534;2023-07-09T08:56:04;13.32;;;5.50;;
33413;SDS011;60055;41.884;12.534;2023-07-09T08:58:34;9.18;;;5.53;;
33413;SDS011;60055;41.884;12.534;2023-07-09T09:01:11;13.52;;;5.63;;
33413;SDS011;60055;41.884;12.534;2023-07-09T09:04:02;10.02;;;5.28;;
33413;SDS011;60055;41.884;12.534;2023-07-09T09:06:31;9.65;;;5.00;;
33413;SDS011;60055;41.884;12.534;2023-07-09T09:11:45;10.45;;;5.50;;
33413;SDS011;60055;41.884;12.534;2023-07-09T09:16:44;10.77;;;5.30;;
33413;SDS011;60055;41.884;12.534;2023-07-09T09:19:18;13.32;;;5.72;;
33413;SDS011;60055;41.884;12.534;2023-07-09T09:21:50;9.23;;;5.55;;
33413;SDS011;60055;41.884;12.534;2023-07-09T09:27:35;10.50;;;5.30;;
33413;SDS011;60055;41.884;12.534;2023-07-09T09:30:01;11.30;;;5.75;;
33413;SDS011;60055;41.884;12.534;2023-07-09T09:32:28;10.88;;;5.90;;
33413;SDS011;60055;41.884;12.534;2023-07-09T09:37:36;8.07;;;5.68;;
33413;SDS011;60055;41.884;12.534;2023-07-09T09:40:02;11.40;;;5.80;;
33413;SDS011;60055;41.884;12.534;2023-07-09T09:42:28;8.68;;;5.80;;
33413;SDS011;60055;41.884;12.534;2023-07-09T09:44:54;13.20;;;5.55;;
33413;SDS011;60055;41.884;12.534;2023-07-09T09:47:20;11.88;;;5.70;;
33413;SDS011;60055;41.884;12.534;2023-07-09T09:49:46;8.30;;;5.30;;
33413;SDS011;60055;41.884;12.534;2023-07-09T09:52:15;10.73;;;5.45;;
33413;SDS011;60055;41.884;12.534;2023-07-09T09:54:52;12.45;;;5.43;;
33413;SDS011;60055;41.884;12.534;2023-07-09T09:57:21;9.75;;;5.25;;
33413;SDS011;60055;41.884;12.534;2023-07-09T09:59:48;13.00;;;4.95;;
33413;SDS011;60055;41.884;12.534;2023-07-09T10:02:18;14.65;;;5.82;;
33413;SDS011;60055;41.884;12.534;2023-07-09T10:04:46;11.07;;;5.47;;
33413;SDS011;60055;41.884;12.534;2023-07-09T10:07:22;10.25;;;5.75;;
33413;SDS011;60055;41.884;12.534;2023-07-09T10:09:54;14.07;;;5.45;;
33413;SDS011;60055;41.884;12.534;2023-07-09T10:15:11;13.18;;;5.28;;
33413;SDS011;60055;41.884;12.534;2023-07-09T10:20:27;11.27;;;6.13;;
33413;SDS011;60055;41.884;12.534;2023-07-09T10:23:19;7.20;;;4.72;;
33413;SDS011;60055;41.884;12.534;2023-07-09T10:34:32;13.93;;;6.13;;
33413;SDS011;60055;41.884;12.534;2023-07-09T10:37:47;10.27;;;5.38;;
33413;SDS011;60055;41.884;12.534;2023-07-09T10:40:07;9.15;;;5.70;;
33413;SDS011;60055;41.884;12.534;2023-07-09T10:42:38;12.02;;;5.65;;
33413;SDS011;60055;41.884;12.534;2023-07-09T10:45:10;11.02;;;5.40;;
33413;SDS011;60055;41.884;12.534;2023-07-09T10:47:43;8.20;;;4.82;;
33413;SDS011;60055;41.884;12.534;2023-07-09T10:50:15;8.20;;;5.15;;
33413;SDS011;60055;41.884;12.534;2023-07-09T10:52:53;10.50;;;4.75;;
33413;SDS011;60055;41.884;12.534;2023-07-09T10:55:33;12.32;;;5.50;;
33413;SDS011;60055;41.884;12.534;2023-07-09T11:00:44;11.80;;;5.22;;
33413;SDS011;60055;41.884;12.534;2023-07-09T11:03:17;13.85;;;5.32;;
33413;SDS011;60055;41.884;12.534;2023-07-09T11:05:46;10.27;;;4.90;;
33413;SDS011;60055;41.884;12.534;2023-07-09T11:08:19;8.57;;;4.60;;
33413;SDS011;60055;41.884;12.534;2023-07-09T11:10:52;11.82;;;5.18;;
33413;SDS011;60055;41.884;12.534;2023-07-09T11:15:54;9.73;;;4.93;;
33413;SDS011;60055;41.884;12.534;2023-07-09T11:18:25;14.90;;;6.03;;
33413;SDS011;60055;41.884;12.534;2023-07-09T11:23:37;9.98;;;4.93;;
33413;SDS011;60055;41.884;12.534;2023-07-09T11:28:38;11.88;;;5.90;;
33413;SDS011;60055;41.884;12.534;2023-07-09T11:31:15;9.50;;;5.55;;
33413;SDS011;60055;41.884;12.534;2023-07-09T11:33:46;12.32;;;5.30;;
33413;SDS011;60055;41.884;12.534;2023-07-09T11:36:25;15.45;;;5.68;;
33413;SDS011;60055;41.884;12.534;2023-07-09T11:38:52;8.43;;;4.80;;
33413;SDS011;60055;41.884;12.534;2023-07-09T11:44:03;9.77;;;5.10;;
33413;SDS011;60055;41.884;12.534;2023-07-09T11:46:48;13.90;;;5.00;;
33413;SDS011;60055;41.884;12.534;2023-07-09T11:49:15;12.35;;;4.90;;
33413;SDS011;60055;41.884;12.534;2023-07-09T11:51:44;10.38;;;4.90;;
33413;SDS011;60055;41.884;12.534;2023-07-09T11:54:12;8.68;;;5.28;;
33413;SDS011;60055;41.884;12.534;2023-07-09T11:56:40;11.80;;;5.43;;
33413;SDS011;60055;41.884;12.534;2023-07-09T11:59:08;9.13;;;5.05;;
33413;SDS011;60055;41.884;12.534;2023-07-09T12:01:38;9.95;;;5.05;;
33413;SDS011;60055;41.884;12.534;2023-07-09T12:04:15;16.35;;;5.15;;
33413;SDS011;60055;41.884;12.534;2023-07-09T12:06:42;10.35;;;5.10;;
33413;SDS011;60055;41.884;12.534;2023-07-09T12:09:17;11.38;;;4.90;;
33413;SDS011;60055;41.884;12.534;2023-07-09T12:11:45;9.73;;;5.20;;
33413;SDS011;60055;41.884;12.534;2023-07-09T12:14:13;9.68;;;4.47;;
33413;SDS011;60055;41.884;12.534;2023-07-09T12:16:41;12.35;;;5.00;;
33413;SDS011;60055;41.884;12.534;2023-07-09T12:19:11;13.73;;;4.72;;
33413;SDS011;60055;41.884;12.534;2023-07-09T12:21:38;9.10;;;5.13;;
33413;SDS011;60055;41.884;12.534;2023-07-09T12:24:26;10.18;;;4.72;;
33413;SDS011;60055;41.884;12.534;2023-07-09T12:26:59;11.10;;;4.60;;
33413;SDS011;60055;41.884;12.534;2023-07-09T12:29:30;8.45;;;4.75;;
33413;SDS011;60055;41.884;12.534;2023-07-09T12:31:57;11.05;;;5.40;;
33413;SDS011;60055;41.884;12.534;2023-07-09T12:34:23;14.93;;;5.32;;
33413;SDS011;60055;41.884;12.534;2023-07-09T12:36:50;7.78;;;5.00;;
33413;SDS011;60055;41.884;12.534;2023-07-09T12:39:21;11.15;;;4.57;;
33413;SDS011;60055;41.884;12.534;2023-07-09T12:41:50;16.55;;;4.88;;
33413;SDS011;60055;41.884;12.534;2023-07-09T12:44:21;13.07;;;5.35;;
33413;SDS011;60055;41.884;12.534;2023-07-09T12:46:48;11.95;;;5.18;;
33413;SDS011;60055;41.884;12.534;2023-07-09T12:49:20;9.75;;;5.18;;
33413;SDS011;60055;41.884;12.534;2023-07-09T12:51:57;10.98;;;4.65;;
33413;SDS011;60055;41.884;12.534;2023-07-09T12:54:27;11.18;;;4.85;;
33413;SDS011;60055;41.884;12.534;2023-07-09T12:56:54;13.27;;;4.80;;
33413;SDS011;60055;41.884;12.534;2023-07-09T13:02:37;9.98;;;4.60;;
33413;SDS011;60055;41.884;12.534;2023-07-09T13:04:42;11.80;;;4.88;;
33413;SDS011;60055;41.884;12.534;2023-07-09T13:09:48;8.85;;;4.65;;
33413;SDS011;60055;41.884;12.534;2023-07-09T13:12:15;11.05;;;4.88;;
33413;SDS011;60055;41.884;12.534;2023-07-09T13:14:40;9.38;;;4.50;;
33413;SDS011;60055;41.884;12.534;2023-07-09T13:17:06;10.70;;;4.63;;
33413;SDS011;60055;41.884;12.534;2023-07-09T13:19:34;9.80;;;4.70;;
33413;SDS011;60055;41.884;12.534;2023-07-09T13:22:00;10.63;;;5.10;;
33413;SDS011;60055;41.884;12.534;2023-07-09T13:24:30;10.85;;;4.80;;
33413;SDS011;60055;41.884;12.534;2023-07-09T13:26:57;14.45;;;4.88;;
33413;SDS011;60055;41.884;12.534;2023-07-09T13:29:24;9.52;;;4.40;;
33413;SDS011;60055;41.884;12.534;2023-07-09T13:31:50;7.93;;;4.40;;
33413;SDS011;60055;41.884;12.534;2023-07-09T13:36:46;8.10;;;4.55;;
33413;SDS011;60055;41.884;12.534;2023-07-09T13:39:12;13.27;;;4.60;;
33413;SDS011;60055;41.884;12.534;2023-07-09T13:41:42;9.35;;;4.50;;
33413;SDS011;60055;41.884;12.534;2023-07-09T13:44:10;8.50;;;4.55;;
33413;SDS011;60055;41.884;12.534;2023-07-09T13:46:38;11.32;;;4.30;;
33413;SDS011;60055;41.884;12.534;2023-07-09T13:49:07;9.55;;;4.63;;
33413;SDS011;60055;41.884;12.534;2023-07-09T13:51:34;11.13;;;4.38;;
33413;SDS011;60055;41.884;12.534;2023-07-09T13:54:00;11.02;;;4.53;;
33413;SDS011;60055;41.884;12.534;2023-07-09T13:56:27;10.05;;;4.55;;
33413;SDS011;60055;41.884;12.534;2023-07-09T13:58:53;9.15;;;4.10;;
33413;SDS011;60055;41.884;12.534;2023-07-09T14:01:20;9.43;;;4.45;;
33413;SDS011;60055;41.884;12.534;2023-07-09T14:03:48;10.10;;;4.20;;
33413;SDS011;60055;41.884;12.534;2023-07-09T14:06:14;9.68;;;4.22;;
33413;SDS011;60055;41.884;12.534;2023-07-09T14:08:41;10.10;;;4.72;;
33413;SDS011;60055;41.884;12.534;2023-07-09T14:11:10;9.88;;;5.18;;
33413;SDS011;60055;41.884;12.534;2023-07-09T14:13:37;10.80;;;4.43;;
33413;SDS011;60055;41.884;12.534;2023-07-09T14:16:03;8.55;;;4.22;;
33413;SDS011;60055;41.884;12.534;2023-07-09T14:18:29;9.80;;;4.25;;
33413;SDS011;60055;41.884;12.534;2023-07-09T14:20:54;8.50;;;4.15;;
33413;SDS011;60055;41.884;12.534;2023-07-09T14:23:21;9.38;;;4.32;;
33413;SDS011;60055;41.884;12.534;2023-07-09T14:25:47;7.45;;;4.10;;
33413;SDS011;60055;41.884;12.534;2023-07-09T14:28:17;9.10;;;4.25;;
33413;SDS011;60055;41.884;12.534;2023-07-09T14:30:45;9.65;;;4.07;;
33413;SDS011;60055;41.884;12.534;2023-07-09T14:33:13;7.00;;;3.85;;
33413;SDS011;60055;41.884;12.534;2023-07-09T14:35:40;12.38;;;4.57;;
33413;SDS011;60055;41.884;12.534;2023-07-09T14:38:14;10.52;;;4.20;;
33413;SDS011;60055;41.884;12.534;2023-07-09T14:40:42;9.70;;;4.15;;
33413;SDS011;60055;41.884;12.534;2023-07-09T14:43:11;13.93;;;4.40;;
33413;SDS011;60055;41.884;12.534;2023-07-09T14:45:37;9.25;;;3.75;;
33413;SDS011;60055;41.884;12.534;2023-07-09T14:48:08;9.77;;;3.88;;
33413;SDS011;60055;41.884;12.534;2023-07-09T14:50:35;10.93;;;4.30;;
33413;SDS011;60055;41.884;12.534;2023-07-09T14:53:00;11.88;;;4.22;;
33413;SDS011;60055;41.884;12.534;2023-07-09T14:55:26;9.82;;;4.40;;
33413;SDS011;60055;41.884;12.534;2023-07-09T14:57:53;10.45;;;4.00;;
33413;SDS011;60055;41.884;12.534;2023-07-09T15:00:20;9.93;;;3.90;;
33413;SDS011;60055;41.884;12.534;2023-07-09T15:02:48;8.27;;;3.90;;
33413;SDS011;60055;41.884;12.534;2023-07-09T15:05:19;8.45;;;3.75;;
33413;SDS011;60055;41.884;12.534;2023-07-09T15:07:46;6.38;;;4.00;;
33413;SDS011;60055;41.884;12.534;2023-07-09T15:10:16;8.27;;;3.80;;
33413;SDS011;60055;41.884;12.534;2023-07-09T15:12:44;8.77;;;4.32;;
33413;SDS011;60055;41.884;12.534;2023-07-09T15:17:47;7.45;;;3.95;;
33413;SDS011;60055;41.884;12.534;2023-07-09T15:20:14;9.88;;;4.40;;
33413;SDS011;60055;41.884;12.534;2023-07-09T15:22:41;10.18;;;4.07;;